M I D A S
Marine Information and Data Acquisition System
Tripno 837 of the Zeeleeuw from 2005-01-13 07:08:01 to 2005-01-13 17:56:54
Back to CruiseResearch ActivitiesStationsMapUnderway DataData graphs

EquipmentUnitsComment
TimeDGPSUTC
LatitudeDGPSDM.mWGS84
LongitudeDGPSDM.mWGS84
TemperatureSBE03/SBE38deg celciusITS90
ConductivitySBE21S/mITS90
SalinitySBE21 Practical Salinity Units
ChlorophylAChelsea fluorimeterg/lCalibrated in Aceton
Missing or incorrect values are displayed as -999
Sea surface data collected by the RV Zeeleeuw from 2005-01-13 07:08:44 to 2005-01-13 18:06:43
Time Latitude Longitude Temperature Conductivity Salinity ChlorophylA
2005-01-13 07:09:49 51°13.614 2°56.04 14.714697 0.01983 0.113366 -0.781249
2005-01-13 07:10:49 51°13.652 2°55.931 14.794067 0.01983 0.11338 -0.781249
2005-01-13 07:11:49 51°13.675 2°55.797 13.159906 0.01983 0.113479 -0.781249
2005-01-13 07:12:49 51°13.689 2°55.756 8.356256 3.139922 28.782906 0.836802
2005-01-13 07:13:49 51°13.701 2°55.76 8.062982 2.887289 26.830648 1.005349
2005-01-13 07:14:49 51°13.763 2°55.693 8.09551 2.855613 26.61363 1.072768
2005-01-13 07:15:49 51°13.886 2°55.589 8.069082 2.766065 25.753809 1.039059
2005-01-13 07:16:49 51°14.028 2°55.488 8.103275 2.998018 28.150467 1.241315
2005-01-13 07:17:49 51°14.173 2°55.377 8.002678 3.087184 29.093957 1.106477
2005-01-13 07:18:49 51°14.294 2°55.203 7.96556 3.106978 29.37631 0.97164
2005-01-13 07:19:49 51°14.404 2°55.017 8.052344 3.180998 30.101824 1.275024
2005-01-13 07:20:49 51°14.498 2°54.881 8.038418 3.231543 30.649212 1.173896
2005-01-13 07:21:49 51°14.637 2°54.72 8.105203 3.419439 32.57041 1.173896
2005-01-13 07:22:49 51°14.807 2°54.534 8.111769 3.482118 33.222957 0.97164
2005-01-13 07:23:49 51°14.981 2°54.348 8.08764 3.474849 33.138834 0.432289
2005-01-13 07:24:49 51°15.156 2°54.157 8.054795 3.502135 33.470229 0.364871
2005-01-13 07:25:49 51°15.334 2°53.968 8.046972 3.470741 33.163915 0.600836
2005-01-13 07:26:49 51°15.508 2°53.777 8.051405 3.51404 33.627116 0.432289
2005-01-13 07:27:49 51°15.684 2°53.589 8.051509 3.492232 33.386549 0.735674
2005-01-13 07:28:49 51°15.868 2°53.421 8.043425 3.517306 33.658644 0.769383
2005-01-13 07:29:49 51°16.058 2°53.284 8.0032 3.5152 33.665119 0.735674
2005-01-13 07:30:49 51°16.251 2°53.147 7.998398 3.514568 33.680084 0.735674
2005-01-13 07:31:49 51°16.446 2°53.016 8.004504 3.51088 33.629576 0.668255
2005-01-13 07:32:49 51°16.629 2°52.892 8.007636 3.504454 33.564378 0.499708
2005-01-13 07:33:49 51°16.815 2°52.771 8.026055 3.50635 33.576549 0.634546
2005-01-13 07:34:49 51°17.01 2°52.64 8.051249 3.531845 33.823001 0.769383
2005-01-13 07:35:49 51°17.201 2°52.511 8.073931 3.524681 33.725037 0.769383
2005-01-13 07:36:49 51°17.387 2°52.4 8.082324 3.532582 33.797816 0.567127
2005-01-13 07:37:49 51°17.586 2°52.325 8.092279 3.539747 33.865153 0.634546
2005-01-13 07:38:49 51°17.79 2°52.279 8.08665 3.545752 33.92742 0.600836
2005-01-13 07:39:49 51°17.997 2°52.232 8.031115 3.540063 33.899187 0.803093
2005-01-13 07:40:49 51°18.196 2°52.2 7.992135 3.535112 33.898995 0.634546
2005-01-13 07:41:49 51°18.4 2°52.255 7.987228 3.52858 33.842297 0.769383
2005-01-13 07:42:49 51°18.6 2°52.345 7.992865 3.5211 33.754499 0.668255
2005-01-13 07:43:49 51°18.803 2°52.446 7.997511 3.529844 33.847692 0.803093
2005-01-13 07:44:49 51°18.998 2°52.572 7.987959 3.512145 33.66151 0.904221
2005-01-13 07:45:49 51°19.19 2°52.704 7.974907 3.530687 33.866381 0.735674
2005-01-13 07:46:49 51°19.386 2°52.833 7.962009 3.524787 33.819634 0.769383
2005-01-13 07:47:49 51°19.58 2°52.961 7.957779 3.528475 33.867058 0.668255
2005-01-13 07:48:49 51°19.776 2°53.08 7.956265 3.525314 33.841427 0.701965
2005-01-13 07:49:49 51°19.977 2°53.177 7.961383 3.522154 33.805278 0.465999
2005-01-13 07:50:49 51°20.178 2°53.281 7.968694 3.527316 33.853075 0.701965
2005-01-13 07:51:49 51°20.38 2°53.378 7.97167 3.527527 33.852895 0.567127
2005-01-13 07:52:49 51°20.578 2°53.481 7.976056 3.526157 33.836667 0.735674
2005-01-13 07:53:49 51°20.688 2°53.485 7.978979 3.531003 33.885129 0.499708
2005-01-13 07:54:49 51°20.713 2°53.472 7.986079 3.531109 33.876538 0.769383
2005-01-13 07:55:49 51°20.713 2°53.465 7.987437 3.530371 33.8711 0.567127
2005-01-13 07:56:49 51°20.706 2°53.466 7.984043 3.531846 33.873884 0.600836
2005-01-13 07:57:49 51°20.733 2°53.48 7.980128 3.525314 33.814747 0.634546
2005-01-13 07:58:49 51°20.893 2°53.442 7.993544 3.517623 33.73276 0.600836
2005-01-13 07:59:49 51°21.096 2°53.441 8.006174 3.530371 33.854116 0.735674
2005-01-13 08:00:49 51°21.304 2°53.466 8.012541 3.532583 33.868806 0.600836
2005-01-13 08:01:49 51°21.512 2°53.498 8.022924 3.534901 33.882997 0.836802
2005-01-13 08:02:49 51°21.716 2°53.538 8.031845 3.506666 33.570302 0.904221
2005-01-13 08:03:49 51°21.923 2°53.586 8.028872 3.542065 33.94801 0.97164
2005-01-13 08:04:49 51°22.128 2°53.629 8.023655 3.539221 33.919318 0.97164
2005-01-13 08:05:49 51°22.335 2°53.675 8.010923 3.537324 33.909629 0.93793
2005-01-13 08:06:49 51°22.54 2°53.731 8.006279 3.522364 33.758298 1.005349
2005-01-13 08:07:49 51°22.736 2°53.839 8.01061 3.533215 33.874735 0.836802
2005-01-13 08:08:49 51°22.923 2°53.973 8.001321 3.53764 33.921903 0.769383
2005-01-13 08:09:49 51°23.104 2°54.134 8.007897 3.530476 33.843925 0.701965
2005-01-13 08:10:49 51°23.286 2°54.288 8.007009 3.536165 33.90537 0.803093
2005-01-13 08:11:49 51°23.467 2°54.447 7.997354 3.541328 33.963648 0.769383
2005-01-13 08:12:49 51°23.644 2°54.617 7.99772 3.537957 33.932562 0.735674
2005-01-13 08:13:49 51°23.815 2°54.808 7.990934 3.533848 33.891181 0.769383
2005-01-13 08:14:49 51°23.987 2°54.986 8.001321 3.532583 33.882556 0.668255
2005-01-13 08:15:49 51°24.158 2°55.167 7.998607 3.532583 33.882556 0.668255
2005-01-13 08:16:49 51°24.326 2°55.352 8.00059 3.536482 33.912786 0.803093
2005-01-13 08:17:49 51°24.487 2°55.559 8.021724 3.545226 34.007655 0.769383
2005-01-13 08:18:49 51°24.644 2°55.766 8.011915 3.535639 33.900564 0.803093
2005-01-13 08:19:49 51°24.802 2°55.969 8.015515 3.536271 33.902446 0.836802
2005-01-13 08:20:49 51°24.965 2°56.175 8.018698 3.538483 33.9236 0.803093
2005-01-13 08:21:49 51°25.124 2°56.376 8.016089 3.534901 33.888658 0.836802
2005-01-13 08:22:49 51°25.282 2°56.581 8.021516 3.543435 33.972331 0.769383
2005-01-13 08:23:49 51°25.449 2°56.777 8.01061 3.547439 34.01907 0.735674
2005-01-13 08:24:49 51°25.616 2°56.958 8.009514 3.546807 34.02045 0.701965
2005-01-13 08:25:49 51°25.786 2°57.137 8.010975 3.554603 34.093848 0.769383
2005-01-13 08:26:49 51°25.953 2°57.321 8.012697 3.546596 34.01333 0.836802
2005-01-13 08:27:49 51°26.122 2°57.5 8.010088 3.545964 34.005778 0.803093
2005-01-13 08:28:49 51°26.29 2°57.684 7.995162 3.534796 33.893198 0.803093
2005-01-13 08:29:49 51°26.458 2°57.869 7.997511 3.519414 33.737344 0.836802
2005-01-13 08:30:49 51°26.624 2°58.051 7.992396 3.552285 34.093538 0.870512
2005-01-13 08:31:49 51°26.793 2°58.233 7.975795 3.548809 34.067827 0.870512
2005-01-13 08:32:49 51°26.951 2°58.436 7.965665 3.547544 34.055959 0.836802
2005-01-13 08:33:49 51°27.104 2°58.647 7.963315 3.552391 34.110143 0.769383
2005-01-13 08:34:49 51°27.259 2°58.856 7.947856 3.52247 33.810266 0.803093
2005-01-13 08:35:49 51°27.409 2°59.069 7.931505 3.547755 34.085901 0.769383
2005-01-13 08:36:49 51°27.537 2°59.314 7.919487 3.539643 34.022032 0.803093
2005-01-13 08:37:49 51°27.666 2°59.556 7.916143 3.540065 34.031423 0.836802
2005-01-13 08:38:49 51°27.793 2°59.804 7.9013 3.531425 33.948041 0.904221
2005-01-13 08:39:49 51°27.916 3°0.056 7.904488 3.537326 34.021691 0.97164
2005-01-13 08:40:49 51°28.03 3°0.314 7.879709 3.533427 33.991409 1.039059
2005-01-13 08:41:49 51°28.147 3°0.572 7.876519 3.520469 33.865028 0.97164
2005-01-13 08:42:49 51°28.268 3°0.827 7.861929 3.525737 33.922987 0.97164
2005-01-13 08:43:49 51°28.382 3°1.089 7.849323 3.526474 33.947964 0.93793
2005-01-13 08:44:49 51°28.503 3°1.343 7.828291 3.51931 33.887565 0.870512
2005-01-13 08:45:49 51°28.62 3°1.599 7.832948 3.518784 33.895754 0.904221
2005-01-13 08:46:49 51°28.739 3°1.858 7.806833 3.512779 33.846901 0.870512
2005-01-13 08:47:49 51°28.86 3°2.11 7.795264 3.510672 33.835714 0.97164
2005-01-13 08:48:49 51°28.979 3°2.366 7.767981 3.508881 33.838482 0.97164
2005-01-13 08:49:49 51°29.1 3°2.62 7.742155 3.501507 33.778132 0.93793
2005-01-13 08:50:49 51°29.219 3°2.879 7.716738 3.494765 33.726144 0.904221
2005-01-13 08:51:49 51°29.335 3°3.141 7.69451 3.462423 33.407713 0.870512
2005-01-13 08:52:49 51°29.46 3°3.398 7.66556 3.487496 33.688754 0.836802
2005-01-13 08:53:49 51°29.589 3°3.644 7.630352 3.475276 33.598116 0.836802
2005-01-13 08:54:49 51°29.708 3°3.902 7.582573 3.466217 33.546981 0.803093
2005-01-13 08:55:49 51°29.821 3°4.158 7.511208 3.459897 33.529285 0.904221
2005-01-13 08:56:49 51°29.941 3°4.412 7.474655 3.447256 33.445071 0.870512
2005-01-13 08:57:49 51°30.048 3°4.675 7.448502 3.440725 33.413602 0.836802
2005-01-13 08:58:49 51°30.169 3°4.928 7.408491 3.419131 33.205012 0.803093
2005-01-13 08:59:49 51°30.287 3°5.183 7.396431 3.424398 33.286072 0.836802
2005-01-13 09:00:49 51°30.402 3°5.445 7.400275 3.429349 33.343566 0.836802
2005-01-13 09:01:49 51°30.528 3°5.694 7.374884 3.400276 33.048377 0.803093
2005-01-13 09:02:49 51°30.644 3°5.954 7.381944 3.403857 33.074944 0.769383
2005-01-13 09:03:49 51°30.765 3°6.209 7.378098 3.434616 33.419947 0.735674
2005-01-13 09:04:49 51°30.884 3°6.469 7.389741 3.433984 33.406613 0.769383
2005-01-13 09:05:49 51°30.997 3°6.735 7.358496 3.43567 33.432957 0.735674
2005-01-13 09:06:49 51°31.121 3°6.993 7.321541 3.399749 33.07328 0.769383
2005-01-13 09:07:49 51°31.241 3°7.247 7.279869 3.417657 33.299982 0.870512
2005-01-13 09:08:49 51°31.358 3°7.508 7.228456 3.378157 32.934905 0.904221
2005-01-13 09:09:49 51°31.476 3°7.767 7.245457 3.373734 32.917614 0.97164
2005-01-13 09:10:49 51°31.596 3°8.026 7.193753 3.369731 32.889568 1.005349
2005-01-13 09:11:49 51°31.71 3°8.287 7.166696 3.40091 33.238043 1.005349
2005-01-13 09:12:49 51°31.826 3°8.556 7.170025 3.392167 33.154577 1.005349
2005-01-13 09:13:49 51°31.942 3°8.82 7.187095 3.401226 33.246355 0.97164
2005-01-13 09:14:49 51°32.06 3°9.079 7.20284 3.407651 33.305484 0.97164
2005-01-13 09:15:49 51°32.177 3°9.339 7.197662 3.397644 33.192056 0.97164
2005-01-13 09:16:49 51°32.289 3°9.599 7.205903 3.387638 33.07224 0.97164
2005-01-13 09:17:49 51°32.406 3°9.858 7.208597 3.405334 33.265684 0.97164
2005-01-13 09:18:49 51°32.521 3°10.112 7.232099 3.419765 33.415691 0.97164
2005-01-13 09:19:49 51°32.639 3°10.365 7.237538 3.393852 33.123379 0.93793
2005-01-13 09:20:49 51°32.753 3°10.621 7.208703 3.420186 33.40392 0.836802
2005-01-13 09:21:49 51°32.867 3°10.881 7.200991 3.417132 33.389572 0.870512
2005-01-13 09:22:49 51°32.983 3°11.137 7.190213 3.407862 33.302878 0.97164
2005-01-13 09:23:49 51°33.101 3°11.39 7.176156 3.399119 33.225125 1.039059
2005-01-13 09:24:49 51°33.218 3°11.645 7.174729 3.400805 33.24097 1.106477
2005-01-13 09:25:49 51°33.341 3°11.904 7.155912 3.397118 33.217239 1.039059
2005-01-13 09:26:49 51°33.459 3°12.168 7.138676 3.393221 33.198529 0.836802
2005-01-13 09:27:49 51°33.577 3°12.426 7.139998 3.387322 33.135293 0.803093
2005-01-13 09:28:49 51°33.692 3°12.681 7.148458 3.393642 33.179514 0.735674
2005-01-13 09:29:49 51°33.811 3°12.941 7.163577 3.393537 33.178371 0.769383
2005-01-13 09:30:49 51°33.931 3°13.198 7.163471 3.39459 33.193055 0.803093
2005-01-13 09:31:49 51°34.042 3°13.456 7.164951 3.400805 33.259701 0.803093
2005-01-13 09:32:49 51°34.158 3°13.707 7.186619 3.399962 33.239152 0.769383
2005-01-13 09:33:49 51°34.272 3°13.955 7.190899 3.409337 33.309095 0.634546
2005-01-13 09:34:49 51°34.386 3°14.217 7.239491 3.398592 33.205587 0.634546
2005-01-13 09:35:49 51°34.501 3°14.469 7.1208 3.389956 33.157381 0.701965
2005-01-13 09:36:49 51°34.621 3°14.72 7.087204 3.379001 33.074972 0.769383
2005-01-13 09:37:49 51°34.743 3°14.976 7.072861 3.370048 33.008521 0.836802
2005-01-13 09:38:49 51°34.86 3°15.239 7.045013 3.358462 32.897984 0.870512
2005-01-13 09:39:49 51°34.981 3°15.498 7.025258 3.349931 32.821417 0.97164
2005-01-13 09:40:49 51°35.102 3°15.758 7.022186 3.350142 32.824513 1.005349
2005-01-13 09:41:49 51°35.221 3°16.019 7.014875 3.340768 32.741969 1.039059
2005-01-13 09:42:49 51°35.34 3°16.274 7.016093 3.343612 32.77208 1.005349
2005-01-13 09:43:49 51°35.455 3°16.534 7.001576 3.340978 32.747482 1.039059
2005-01-13 09:44:49 51°35.566 3°16.785 7.009312 3.350669 32.867418 1.072768
2005-01-13 09:45:49 51°35.687 3°17.028 6.921141 3.338556 32.76711 1.106477
2005-01-13 09:46:49 51°35.803 3°17.277 6.856701 3.320863 32.646171 1.140187
2005-01-13 09:47:49 51°35.918 3°17.525 6.835083 3.27684 32.204116 1.275024
2005-01-13 09:48:49 51°36.039 3°17.764 6.850593 3.288846 32.341326 1.173896
2005-01-13 09:49:49 51°36.154 3°18.018 6.884205 3.286739 32.285623 1.140187
2005-01-13 09:50:49 51°36.269 3°18.26 6.912121 3.292005 32.317412 1.173896
2005-01-13 09:51:49 51°36.382 3°18.511 6.932016 3.292215 32.304551 1.140187
2005-01-13 09:52:49 51°36.494 3°18.755 6.931804 3.288319 32.256597 1.140187
2005-01-13 09:53:49 51°36.61 3°19.002 6.978574 3.295269 32.304296 1.039059
2005-01-13 09:54:49 51°36.723 3°19.248 6.920292 3.282947 32.175976 0.93793
2005-01-13 09:55:49 51°36.838 3°19.482 6.84645 3.286634 32.284476 1.140187
2005-01-13 09:56:49 51°36.962 3°19.709 6.809259 3.260516 32.036681 1.241315
2005-01-13 09:57:49 51°37.091 3°19.929 6.8091 3.27326 32.211325 1.241315
2005-01-13 09:58:49 51°37.221 3°20.152 6.765984 3.269047 32.186912 1.308734
2005-01-13 09:59:49 51°37.359 3°20.374 6.72332 3.269048 32.202878 1.409862
2005-01-13 10:00:49 51°37.491 3°20.588 6.747634 3.287478 32.444406 1.376153
2005-01-13 10:01:49 51°37.617 3°20.812 6.815955 3.294113 32.464597 1.207606
2005-01-13 10:02:49 51°37.749 3°21.033 6.788689 3.289268 32.402032 1.140187
2005-01-13 10:03:49 51°37.878 3°21.262 6.82196 3.295587 32.458174 1.072768
2005-01-13 10:04:49 51°38.002 3°21.492 6.818187 3.320864 32.714875 0.97164
2005-01-13 10:05:49 51°38.134 3°21.711 6.814414 3.326762 32.768772 1.005349
2005-01-13 10:06:49 51°38.265 3°21.937 6.817071 3.329184 32.811481 1.072768
2005-01-13 10:07:49 51°38.396 3°22.17 6.820684 3.329711 32.809112 1.039059
2005-01-13 10:08:49 51°38.53 3°22.397 6.815902 3.336768 32.885431 0.93793
2005-01-13 10:09:50 51°38.662 3°22.633 6.825892 3.335398 32.866395 1.005349
2005-01-13 10:10:49 51°38.791 3°22.863 6.852134 3.340454 32.911881 1.039059
2005-01-13 10:11:49 51°38.922 3°23.107 6.885319 3.34593 32.938326 1.173896
2005-01-13 10:12:49 51°39.046 3°23.358 6.910264 3.355936 33.016608 1.275024
2005-01-13 10:13:49 51°39.166 3°23.611 6.903365 3.351512 32.962627 1.308734
2005-01-13 10:14:49 51°39.283 3°23.852 6.882293 3.33445 32.793528 1.173896
2005-01-13 10:15:49 51°39.402 3°24.093 6.838217 3.338136 32.874354 0.97164
2005-01-13 10:16:49 51°39.524 3°24.33 6.804688 3.338663 32.907787 1.039059
2005-01-13 10:17:50 51°39.649 3°24.572 6.72614 3.32613 32.813856 0.93793
2005-01-13 10:18:49 51°39.765 3°24.813 6.740559 3.314229 32.740501 0.803093
2005-01-13 10:19:49 51°39.886 3°25.05 6.767846 3.32771 32.853138 0.870512
2005-01-13 10:20:49 51°40.004 3°25.296 6.775344 3.330343 32.858327 1.072768
2005-01-13 10:21:49 51°40.122 3°25.541 6.779385 3.333082 32.88585 1.173896
2005-01-13 10:22:49 51°40.24 3°25.789 6.739123 3.323181 32.779152 1.072768
2005-01-13 10:23:49 51°40.359 3°26.044 6.678124 3.307068 32.661246 1.072768
2005-01-13 10:24:49 51°40.48 3°26.288 6.626769 3.311281 32.752136 1.241315
2005-01-13 10:25:49 51°40.608 3°26.523 6.568279 3.298643 32.676155 1.5447
2005-01-13 10:26:49 51°40.742 3°26.748 6.54235 3.294747 32.656156 1.477281
2005-01-13 10:27:49 51°40.888 3°26.953 6.543471 3.288112 32.60929 1.241315
2005-01-13 10:28:49 51°41.046 3°27.135 6.539789 3.282846 32.553029 1.207606
2005-01-13 10:29:49 51°41.206 3°27.319 6.537974 3.287796 32.610702 1.173896
2005-01-13 10:30:49 51°41.368 3°27.501 6.55729 3.289692 32.624215 1.106477
2005-01-13 10:31:49 51°41.527 3°27.684 6.602942 3.298538 32.689668 1.173896
2005-01-13 10:32:49 51°41.688 3°27.858 6.64478 3.302224 32.69674 1.140187
2005-01-13 10:33:49 51°41.854 3°28.029 6.636308 3.309596 32.743429 1.207606
2005-01-13 10:34:49 51°42.019 3°28.198 6.616696 3.300539 32.670101 1.275024
2005-01-13 10:35:50 51°42.179 3°28.367 6.602942 3.291587 32.579988 1.679537
2005-01-13 10:36:50 51°42.337 3°28.527 6.60017 3.270629 32.37836 1.915503
2005-01-13 10:37:49 51°42.489 3°28.68 6.588706 3.281898 32.501223 1.814375
2005-01-13 10:38:49 51°42.642 3°28.837 6.585613 3.282951 32.513595 1.881794
2005-01-13 10:39:49 51°42.796 3°28.995 6.610299 3.279476 32.486785 1.780665
2005-01-13 10:40:49 51°42.951 3°29.15 6.589986 3.278001 32.448741 1.746956
2005-01-13 10:41:49 51°43.094 3°29.331 6.593558 3.27916 32.471166 1.949212
2005-01-13 10:42:49 51°43.228 3°29.523 6.592332 3.279265 32.458563 1.713247
2005-01-13 10:43:49 51°43.373 3°29.705 6.586413 3.27916 32.468737 1.679537
2005-01-13 10:44:49 51°43.525 3°29.883 6.593398 3.278949 32.472902 1.5447
2005-01-13 10:45:49 51°43.676 3°30.056 6.591959 3.281055 32.481445 1.376153
2005-01-13 10:46:49 51°43.823 3°30.238 6.599583 3.27758 32.448163 1.275024
2005-01-13 10:47:49 51°43.971 3°30.421 6.577933 3.282003 32.50481 1.275024
2005-01-13 10:48:49 51°44.12 3°30.6 6.563265 3.278739 32.484363 1.106477
2005-01-13 10:49:49 51°44.265 3°30.786 6.565826 3.274842 32.452909 0.735674
2005-01-13 10:50:49 51°44.403 3°30.987 6.578093 3.288533 32.616365 0.600836
2005-01-13 10:51:49 51°44.523 3°31.218 6.541977 3.286532 32.59355 0.600836
2005-01-13 10:52:49 51°44.625 3°31.474 6.536266 3.290218 32.6406 0.600836
2005-01-13 10:53:49 51°44.695 3°31.758 6.530502 3.289376 32.63704 0.567127
2005-01-13 10:54:49 51°44.754 3°32.055 6.521375 3.285479 32.599881 0.499708
2005-01-13 10:55:49 51°44.816 3°32.349 6.517745 3.290008 32.660309 0.432289
2005-01-13 10:56:49 51°44.874 3°32.65 6.518065 3.291377 32.677828 0.465999
2005-01-13 10:57:49 51°44.897 3°32.968 6.54299 3.294958 32.704165 0.432289
2005-01-13 10:58:49 51°44.943 3°33.281 6.524471 3.296116 32.717732 0.432289
2005-01-13 10:59:49 51°44.984 3°33.592 6.522122 3.294221 32.700138 0.499708
2005-01-13 11:00:49 51°45.03 3°33.907 6.533918 3.288849 32.641032 0.465999
2005-01-13 11:01:49 51°45.082 3°34.222 6.55889 3.2859 32.593928 0.499708
2005-01-13 11:02:49 51°45.115 3°34.549 6.557343 3.299592 32.726546 0.432289
2005-01-13 11:03:50 51°45.127 3°34.891 6.575267 3.29738 32.691616 0.39858
2005-01-13 11:04:49 51°45.14 3°35.216 6.584546 3.298327 32.688984 0.432289
2005-01-13 11:05:49 51°45.155 3°35.549 6.582573 3.298854 32.688248 0.432289
2005-01-13 11:06:49 51°45.242 3°35.791 6.590572 3.294957 32.647882 0.499708
2005-01-13 11:07:50 51°45.289 3°35.855 6.596331 3.29422 32.636528 0.499708
2005-01-13 11:08:49 51°45.285 3°35.856 6.594092 3.292008 32.605732 0.533418
2005-01-13 11:09:49 51°45.266 3°35.853 6.603422 3.295484 32.643898 0.499708
2005-01-13 11:10:49 51°45.242 3°35.849 6.617762 3.296326 32.642571 0.465999
2005-01-13 11:11:49 51°45.216 3°35.846 6.603262 3.298116 32.654905 0.39858
2005-01-13 11:12:49 51°45.188 3°35.838 6.601876 3.293588 32.6182 0.39858
2005-01-13 11:13:49 51°45.159 3°35.83 6.601663 3.296958 32.65602 0.39858
2005-01-13 11:14:49 51°45.133 3°35.827 6.593612 3.291798 32.605858 0.39858
2005-01-13 11:15:49 51°45.144 3°35.859 6.606994 3.294746 32.634988 0.432289
2005-01-13 11:16:49 51°45.189 3°35.932 6.605874 3.295905 32.64771 0.533418
2005-01-13 11:17:49 51°45.227 3°36.022 6.605075 3.298222 32.66013 0.499708
2005-01-13 11:18:49 51°45.253 3°36.098 6.60854 3.299486 32.682965 0.499708
2005-01-13 11:19:49 51°45.281 3°36.16 6.610512 3.298538 32.674184 0.499708
2005-01-13 11:20:49 51°45.298 3°36.242 6.608273 3.301276 32.697739 0.39858
2005-01-13 11:21:49 51°45.32 3°36.307 6.612058 3.300223 32.690247 0.39858
2005-01-13 11:22:49 51°45.335 3°36.357 6.612644 3.302961 32.709723 0.432289
2005-01-13 11:23:49 51°45.353 3°36.413 6.626289 3.303593 32.708512 0.432289
2005-01-13 11:24:49 51°45.371 3°36.489 6.616216 3.301697 32.695031 0.432289
2005-01-13 11:25:49 51°45.389 3°36.557 6.620267 3.300855 32.688224 0.39858
2005-01-13 11:26:49 51°45.408 3°36.611 6.618774 3.302119 32.697213 0.465999
2005-01-13 11:27:49 51°45.428 3°36.663 6.629434 3.302329 32.695452 0.465999
2005-01-13 11:28:49 51°45.447 3°36.716 6.628954 3.302118 32.688254 0.465999
2005-01-13 11:29:49 51°45.468 3°36.764 6.627728 3.301487 32.682132 0.533418
2005-01-13 11:30:49 51°45.487 3°36.813 6.620373 3.29917 32.657515 0.533418
2005-01-13 11:31:49 51°45.496 3°36.879 6.61499 3.29938 32.668779 0.499708
2005-01-13 11:32:50 51°45.505 3°36.948 6.617389 3.298432 32.661628 0.533418
2005-01-13 11:33:49 51°45.521 3°37.007 6.617975 3.297379 32.642745 0.600836
2005-01-13 11:34:49 51°45.537 3°37.062 6.616216 3.29601 32.635036 0.600836
2005-01-13 11:35:49 51°45.555 3°37.118 6.621812 3.295694 32.629941 0.701965
2005-01-13 11:36:50 51°45.573 3°37.177 6.614883 3.295378 32.624847 0.668255
2005-01-13 11:37:49 51°45.593 3°37.23 6.628048 3.295168 32.621722 0.701965
2005-01-13 11:38:49 51°45.611 3°37.286 6.620746 3.294852 32.618254 0.769383
2005-01-13 11:39:49 51°45.633 3°37.341 6.625437 3.295483 32.623564 0.769383
2005-01-13 11:40:49 51°45.655 3°37.401 6.623305 3.295273 32.62044 0.870512
2005-01-13 11:41:49 51°45.676 3°37.465 6.627995 3.295167 32.620909 0.836802
2005-01-13 11:42:49 51°45.694 3°37.537 6.626396 3.296642 32.637093 0.769383
2005-01-13 11:43:50 51°45.711 3°37.609 6.623944 3.297485 32.645528 0.701965
2005-01-13 11:44:49 51°45.736 3°37.664 6.637747 3.298327 32.650708 0.735674
2005-01-13 11:45:49 51°45.768 3°37.707 6.635935 3.29938 32.6582 0.735674
2005-01-13 11:46:49 51°45.798 3°37.756 6.629061 3.300855 32.671941 0.701965
2005-01-13 11:47:50 51°45.821 3°37.819 6.634709 3.301276 32.680634 0.600836
2005-01-13 11:48:49 51°45.845 3°37.88 6.633004 3.303066 32.6954 0.668255
2005-01-13 11:49:49 51°45.867 3°37.947 6.632258 3.303804 32.70675 0.533418
2005-01-13 11:50:49 51°45.887 3°38.02 6.633857 3.304751 32.714711 0.533418
2005-01-13 11:51:49 51°45.913 3°38.088 6.636255 3.305173 32.71852 0.465999
2005-01-13 11:52:49 51°45.942 3°38.145 6.633963 3.306015 32.730214 0.465999
2005-01-13 11:53:49 51°45.974 3°38.177 6.632045 3.307595 32.744295 0.465999
2005-01-13 11:54:49 51°46.011 3°38.204 6.631619 3.307174 32.746195 0.567127
2005-01-13 11:55:49 51°46.042 3°38.265 6.624477 3.308227 32.756943 0.39858
2005-01-13 11:56:49 51°46.073 3°38.336 6.627142 3.308859 32.764697 0.432289
2005-01-13 11:57:50 51°46.084 3°38.434 6.64153 3.308543 32.766125 0.432289
2005-01-13 11:58:49 51°46.066 3°38.516 6.623891 3.309596 32.77116 0.432289
2005-01-13 11:59:49 51°46.032 3°38.567 6.626929 3.309702 32.770684 0.465999
2005-01-13 12:00:49 51°45.976 3°38.601 6.643714 3.309491 32.767555 0.499708
2005-01-13 12:01:49 51°45.903 3°38.551 6.667739 3.311597 32.760492 0.533418
2005-01-13 12:02:49 51°45.863 3°38.471 6.642222 3.308859 32.756537 0.634546
2005-01-13 12:03:49 51°45.835 3°38.405 6.633803 3.308438 32.753544 0.600836
2005-01-13 12:04:49 51°45.793 3°38.326 6.62954 3.308438 32.74865 0.567127
2005-01-13 12:05:49 51°45.749 3°38.235 6.63375 3.308332 32.749941 0.600836
2005-01-13 12:06:49 51°45.704 3°38.158 6.634603 3.308332 32.754019 0.634546
2005-01-13 12:07:49 51°45.661 3°38.085 6.640944 3.308227 32.748785 0.567127
2005-01-13 12:08:49 51°45.623 3°38.018 6.637001 3.308332 32.744233 0.567127
2005-01-13 12:09:49 51°45.586 3°37.957 6.634443 3.308332 32.744233 0.634546
2005-01-13 12:10:49 51°45.549 3°37.908 6.6378 3.307911 32.746132 0.600836
2005-01-13 12:11:49 51°45.514 3°37.855 6.634763 3.307911 32.746132 0.600836
2005-01-13 12:12:49 51°45.479 3°37.806 6.63002 3.30749 32.739877 0.634546
2005-01-13 12:13:49 51°45.449 3°37.755 6.637747 3.307384 32.737091 0.668255
2005-01-13 12:14:49 51°45.422 3°37.707 6.630926 3.306963 32.736543 0.668255
2005-01-13 12:15:49 51°45.393 3°37.669 6.626929 3.306858 32.734571 0.634546
2005-01-13 12:16:49 51°45.361 3°37.626 6.639132 3.306858 32.733756 0.634546
2005-01-13 12:17:49 51°45.334 3°37.563 6.633164 3.306647 32.730629 0.634546
2005-01-13 12:18:49 51°45.309 3°37.495 6.635828 3.306542 32.729473 0.634546
2005-01-13 12:19:49 51°45.287 3°37.419 6.632684 3.305805 32.722196 0.634546
2005-01-13 12:20:50 51°45.265 3°37.34 6.635189 3.305067 32.715734 0.600836
2005-01-13 12:21:49 51°45.244 3°37.27 6.633537 3.304857 32.712608 0.668255
2005-01-13 12:22:49 51°45.214 3°37.205 6.63423 3.304541 32.705882 0.634546
2005-01-13 12:23:49 51°45.189 3°37.141 6.628421 3.304541 32.708325 0.668255
2005-01-13 12:24:49 51°45.166 3°37.077 6.628901 3.304225 32.705672 0.668255
2005-01-13 12:25:49 51°45.146 3°37.001 6.635349 3.303382 32.698054 0.701965
2005-01-13 12:26:49 51°45.124 3°36.923 6.631619 3.303066 32.694586 0.668255
2005-01-13 12:27:49 51°45.101 3°36.854 6.626502 3.302961 32.691802 0.735674
2005-01-13 12:28:49 51°45.075 3°36.79 6.632684 3.30275 32.691933 0.735674
2005-01-13 12:29:49 51°45.047 3°36.724 6.641157 3.302434 32.688465 0.735674
2005-01-13 12:30:49 51°45.021 3°36.664 6.635402 3.302118 32.684997 0.735674
2005-01-13 12:31:49 51°44.995 3°36.601 6.630233 3.301487 32.67969 0.735674
2005-01-13 12:32:49 51°44.975 3°36.533 6.627941 3.302329 32.686495 0.735674
2005-01-13 12:33:49 51°44.96 3°36.465 6.628208 3.301381 32.676906 0.701965
2005-01-13 12:34:49 51°44.94 3°36.413 6.631459 3.30096 32.673911 0.769383
2005-01-13 12:35:49 51°44.917 3°36.357 6.627888 3.301171 32.675409 0.803093
2005-01-13 12:36:49 51°44.897 3°36.288 6.630659 3.300855 32.672755 0.769383
2005-01-13 12:37:49 51°44.888 3°36.216 6.623411 3.300539 32.666033 0.769383
2005-01-13 12:38:49 51°44.871 3°36.137 6.631086 3.300855 32.670314 0.803093
2005-01-13 12:39:49 51°44.862 3°36.027 6.631672 3.301065 32.67588 0.701965
2005-01-13 12:40:49 51°44.85 3°35.954 6.622239 3.301908 32.6835 0.701965
2005-01-13 12:41:50 51°44.832 3°35.891 6.628101 3.302013 32.688726 0.735674
2005-01-13 12:42:49 51°44.809 3°35.88 6.629487 3.30275 32.694375 0.668255
2005-01-13 12:43:49 51°44.788 3°35.888 6.64819 3.302856 32.692274 0.701965
2005-01-13 12:44:49 51°44.769 3°35.896 6.638706 3.304119 32.690677 0.668255
2005-01-13 12:45:49 51°44.747 3°35.903 6.6378 3.303066 32.693772 0.668255
2005-01-13 12:46:49 51°44.727 3°35.908 6.634603 3.303066 32.6954 0.668255
2005-01-13 12:47:49 51°44.706 3°35.915 6.632098 3.303066 32.691329 0.701965
2005-01-13 12:48:49 51°44.686 3°35.919 6.633963 3.302856 32.68739 0.668255
2005-01-13 12:49:49 51°44.637 3°35.899 6.628261 3.302329 32.686495 0.701965
2005-01-13 12:50:49 51°44.589 3°35.678 6.626343 3.302434 32.676258 0.735674
2005-01-13 12:51:49 51°44.536 3°35.347 6.636041 3.301802 32.682344 0.701965
2005-01-13 12:52:50 51°44.48 3°34.999 6.628421 3.305173 32.714446 0.600836
2005-01-13 12:53:49 51°44.424 3°34.659 6.629593 3.307174 32.744563 0.465999
2005-01-13 12:54:49 51°44.368 3°34.319 6.609499 3.307806 32.760478 0.432289
2005-01-13 12:55:49 51°44.314 3°33.98 6.595585 3.307385 32.763199 0.39858
2005-01-13 12:56:50 51°44.25 3°33.635 6.592759 3.3057 32.761837 0.432289
2005-01-13 12:57:49 51°44.117 3°33.346 6.57116 3.303909 32.756048 0.465999
2005-01-13 12:58:49 51°43.948 3°33.093 6.581507 3.302856 32.74447 0.499708
2005-01-13 12:59:49 51°43.762 3°32.861 6.552915 3.301487 32.740856 0.499708
2005-01-13 13:00:49 51°43.547 3°32.708 6.554356 3.300434 32.737446 0.499708
2005-01-13 13:01:49 51°43.317 3°32.596 6.554409 3.300223 32.735129 0.465999
2005-01-13 13:02:49 51°43.078 3°32.568 6.568493 3.300855 32.73881 0.465999
2005-01-13 13:03:49 51°42.834 3°32.577 6.584333 3.302119 32.742084 0.432289
2005-01-13 13:04:49 51°42.597 3°32.651 6.572706 3.302962 32.750531 0.432289
2005-01-13 13:05:49 51°42.374 3°32.826 6.586626 3.303067 32.741068 0.39858
2005-01-13 13:06:49 51°42.147 3°32.991 6.595158 3.302119 32.7331 0.432289
2005-01-13 13:07:49 51°41.925 3°33.164 6.578627 3.30096 32.717102 0.465999
2005-01-13 13:08:49 51°41.707 3°33.34 6.58476 3.297801 32.689721 0.499708
2005-01-13 13:09:49 51°41.483 3°33.496 6.600863 3.293483 32.630871 0.567127
2005-01-13 13:10:49 51°41.265 3°33.657 6.611898 3.287374 32.558101 0.904221
2005-01-13 13:11:49 51°41.044 3°33.818 6.606301 3.284741 32.515413 1.072768
2005-01-13 13:12:49 51°40.821 3°33.972 6.610725 3.284004 32.500844 1.173896
2005-01-13 13:13:49 51°40.595 3°34.095 6.623251 3.284425 32.505466 1.207606
2005-01-13 13:14:49 51°40.361 3°34.112 6.603262 3.285584 32.521417 1.207606
2005-01-13 13:15:50 51°40.192 3°33.905 6.612111 3.283899 32.508599 1.5447
2005-01-13 13:16:49 51°40.055 3°33.655 6.58412 3.283162 32.522395 1.578409
2005-01-13 13:17:49 51°39.911 3°33.408 6.595798 3.282003 32.491036 1.780665
2005-01-13 13:18:49 51°39.775 3°33.163 6.61403 3.286426 32.529851 1.51099
2005-01-13 13:19:49 51°39.66 3°32.909 6.621226 3.283477 32.494258 1.679537
2005-01-13 13:20:49 51°39.562 3°32.64 6.626076 3.280634 32.45498 1.612118
2005-01-13 13:21:49 51°39.479 3°32.355 6.626556 3.280002 32.451284 1.5447
2005-01-13 13:22:49 51°39.393 3°32.068 6.627515 3.279896 32.446088 1.342443
2005-01-13 13:23:49 51°39.31 3°31.78 6.62938 3.280107 32.450822 1.443571
2005-01-13 13:24:49 51°39.216 3°31.495 6.609499 3.280212 32.460872 1.342443
2005-01-13 13:25:49 51°39.112 3°31.219 6.586306 3.280739 32.479597 1.275024
2005-01-13 13:26:49 51°38.969 3°30.996 6.570946 3.282319 32.526936 1.376153
2005-01-13 13:27:49 51°38.785 3°30.836 6.568973 3.284426 32.552512 1.409862
2005-01-13 13:28:49 51°38.602 3°30.679 6.571 3.28411 32.546604 1.409862
2005-01-13 13:29:49 51°38.42 3°30.522 6.591532 3.283478 32.531544 1.308734
2005-01-13 13:30:49 51°38.234 3°30.362 6.593238 3.285268 32.536598 1.376153
2005-01-13 13:31:49 51°38.051 3°30.203 6.58428 3.286216 32.555935 1.376153
2005-01-13 13:32:49 51°37.865 3°30.045 6.574147 3.291271 32.613086 1.477281
2005-01-13 13:33:49 51°37.692 3°29.849 6.57388 3.292956 32.629156 1.376153
2005-01-13 13:34:49 51°37.535 3°29.635 6.568279 3.286953 32.571343 1.645828
2005-01-13 13:35:49 51°37.391 3°29.433 6.578733 3.284742 32.550297 1.409862
2005-01-13 13:36:49 51°37.329 3°29.348 6.58652 3.284531 32.539864 1.173896
2005-01-13 13:37:49 51°37.301 3°29.328 6.583053 3.284531 32.535806 1.140187
2005-01-13 13:38:49 51°37.284 3°29.343 6.586306 3.285268 32.543902 1.072768
2005-01-13 13:39:50 51°37.269 3°29.379 6.588706 3.285373 32.544247 1.072768
2005-01-13 13:40:49 51°37.232 3°29.37 6.58684 3.285268 32.54309 1.039059
2005-01-13 13:41:49 51°37.178 3°29.316 6.589026 3.285584 32.548183 1.106477
2005-01-13 13:42:49 51°37.124 3°29.255 6.579427 3.281793 32.506551 1.140187
2005-01-13 13:43:49 51°37.079 3°29.199 6.578733 3.285584 32.553055 1.275024
2005-01-13 13:44:49 51°37.035 3°29.151 6.570466 3.285268 32.552833 1.308734
2005-01-13 13:45:49 51°36.998 3°29.121 6.575373 3.286111 32.565337 1.308734
2005-01-13 13:46:49 51°36.979 3°29.088 6.579427 3.285373 32.549117 1.443571
2005-01-13 13:47:49 51°36.971 3°29.036 6.584706 3.28769 32.570503 1.51099
2005-01-13 13:48:49 51°36.958 3°28.968 6.585186 3.2859 32.556525 1.376153
2005-01-13 13:49:49 51°36.94 3°28.904 6.587373 3.288533 32.581381 1.409862
2005-01-13 13:50:49 51°36.929 3°28.834 6.58428 3.288954 32.586008 1.241315
2005-01-13 13:51:49 51°36.908 3°28.774 6.582467 3.289165 32.588322 1.241315
2005-01-13 13:52:49 51°36.887 3°28.715 6.58028 3.289797 32.596076 1.308734
2005-01-13 13:53:50 51°36.863 3°28.652 6.58508 3.289481 32.590167 1.51099
2005-01-13 13:54:50 51°36.839 3°28.59 6.584706 3.289165 32.591574 1.578409
2005-01-13 13:55:50 51°36.818 3°28.512 6.583 3.289375 32.595514 1.612118
2005-01-13 13:56:50 51°36.796 3°28.439 6.578573 3.288112 32.581631 1.578409
2005-01-13 13:57:49 51°36.771 3°28.364 6.577133 3.288112 32.584069 1.713247
2005-01-13 13:58:50 51°36.748 3°28.289 6.577773 3.28769 32.577816 1.746956
2005-01-13 13:59:50 51°36.722 3°28.223 6.580973 3.288533 32.584632 1.713247
2005-01-13 14:00:49 51°36.699 3°28.18 6.588333 3.288533 32.581381 1.746956
2005-01-13 14:01:50 51°36.679 3°28.122 6.582627 3.289586 32.590511 1.679537
2005-01-13 14:02:50 51°36.658 3°28.07 6.587746 3.290007 32.592699 1.645828
2005-01-13 14:03:49 51°36.642 3°28.019 6.595318 3.291271 32.605766 1.51099
2005-01-13 14:04:49 51°36.623 3°27.964 6.599797 3.291798 32.60911 1.443571
2005-01-13 14:05:50 51°36.602 3°27.909 6.593718 3.292535 32.613953 1.376153
2005-01-13 14:06:49 51°36.589 3°27.848 6.603049 3.294009 32.630146 1.308734
2005-01-13 14:07:50 51°36.574 3°27.786 6.604275 3.294431 32.634772 1.241315
2005-01-13 14:08:50 51°36.563 3°27.718 6.609286 3.296432 32.652679 1.207606
2005-01-13 14:09:50 51°36.55 3°27.652 6.612325 3.297906 32.661544 1.275024
2005-01-13 14:10:50 51°36.539 3°27.584 6.616322 3.29917 32.668908 1.207606
2005-01-13 14:11:49 51°36.527 3°27.519 6.615043 3.299907 32.677002 1.140187
2005-01-13 14:12:50 51°36.516 3°27.454 6.622559 3.300433 32.680341 1.106477
2005-01-13 14:13:50 51°36.505 3°27.393 6.628687 3.30275 32.699262 1.106477
2005-01-13 14:14:50 51°36.494 3°27.344 6.636947 3.303066 32.692958 1.072768
2005-01-13 14:15:50 51°36.489 3°27.288 6.640304 3.305594 32.71907 1.072768
2005-01-13 14:16:50 51°36.504 3°27.221 6.642382 3.305594 32.715811 1.106477
2005-01-13 14:17:49 51°36.523 3°27.155 6.650267 3.307068 32.727918 1.173896
2005-01-13 14:18:50 51°36.556 3°27.088 6.657139 3.308016 32.734245 1.140187
2005-01-13 14:19:50 51°36.599 3°27.057 6.655062 3.308859 32.741045 1.072768
2005-01-13 14:20:50 51°36.622 3°27.081 6.654582 3.308543 32.738393 1.039059
2005-01-13 14:21:50 51°36.634 3°27.128 6.652452 3.308753 32.737445 1.072768
2005-01-13 14:22:50 51°36.644 3°27.182 6.65943 3.307911 32.733904 1.106477
2005-01-13 14:23:49 51°36.652 3°27.178 6.657139 3.308648 32.737104 1.106477
2005-01-13 14:24:49 51°36.632 3°27.112 6.651759 3.308437 32.732349 1.106477
2005-01-13 14:25:50 51°36.627 3°27.034 6.651066 3.308332 32.735267 1.106477
2005-01-13 14:26:49 51°36.619 3°26.962 6.661507 3.308859 32.741045 1.106477
2005-01-13 14:27:49 51°36.6 3°26.889 6.666354 3.310438 32.748598 1.173896
2005-01-13 14:28:50 51°36.583 3°26.838 6.687549 3.312755 32.764234 1.072768
2005-01-13 14:29:50 51°36.567 3°26.784 6.698996 3.314862 32.775923 1.072768
2005-01-13 14:30:49 51°36.555 3°26.732 6.700699 3.317179 32.789101 1.039059
2005-01-13 14:31:49 51°36.542 3°26.682 6.708151 3.318864 32.797791 1.072768
2005-01-13 14:32:49 51°36.531 3°26.627 6.736995 3.310438 32.686789 1.207606
2005-01-13 14:33:49 51°36.518 3°26.562 6.749709 3.319074 32.76672 1.173896
2005-01-13 14:34:49 51°36.505 3°26.495 6.765984 3.320338 32.758605 1.039059
2005-01-13 14:35:49 51°36.49 3°26.425 6.764229 3.320022 32.75596 1.173896
2005-01-13 14:36:50 51°36.478 3°26.354 6.784435 3.317494 32.714511 1.106477
2005-01-13 14:37:49 51°36.466 3°26.285 6.803413 3.323708 32.764605 1.072768
2005-01-13 14:38:50 51°36.453 3°26.211 6.785765 3.320653 32.732025 1.039059
2005-01-13 14:39:50 51°36.442 3°26.141 6.792995 3.324655 32.768473 1.140187
2005-01-13 14:40:49 51°36.432 3°26.071 6.812554 3.324971 32.780859 1.140187
2005-01-13 14:41:50 51°36.419 3°26.006 6.843529 3.326446 32.793732 1.241315
2005-01-13 14:42:49 51°36.409 3°25.947 6.877091 3.342349 32.849686 1.342443
2005-01-13 14:43:49 51°36.397 3°25.882 6.82095 3.329184 32.77901 1.51099
2005-01-13 14:44:49 51°36.385 3°25.813 6.849637 3.335504 32.861851 1.612118
2005-01-13 14:45:49 51°36.376 3°25.755 6.805273 3.330869 32.828277 1.881794
2005-01-13 14:46:49 51°36.369 3°25.683 6.829239 3.326867 32.791027 1.881794
2005-01-13 14:47:49 51°36.36 3°25.616 6.811969 3.332765 32.846562 1.982922
2005-01-13 14:48:49 51°36.352 3°25.548 6.81282 3.337294 32.878977 1.746956
2005-01-13 14:49:49 51°36.342 3°25.48 6.868596 3.335188 32.864092 1.780665
2005-01-13 14:50:50 51°36.333 3°25.405 6.889088 3.340769 32.883596 1.477281
2005-01-13 14:51:49 51°36.325 3°25.332 6.895882 3.352566 32.985523 1.342443
2005-01-13 14:52:50 51°36.321 3°25.269 6.907664 3.352039 32.966746 1.308734
2005-01-13 14:53:50 51°36.31 3°25.2 6.922839 3.353197 32.976131 1.308734
2005-01-13 14:54:49 51°36.292 3°25.143 6.923051 3.352039 32.947222 1.308734
2005-01-13 14:55:49 51°36.276 3°25.076 6.932918 3.353197 32.959043 1.241315
2005-01-13 14:56:50 51°36.258 3°25.009 6.945595 3.358253 33.002781 1.241315
2005-01-13 14:57:49 51°36.241 3°24.939 6.943155 3.355093 32.97565 1.207606
2005-01-13 14:58:49 51°36.226 3°24.859 6.929735 3.35562 32.972445 1.173896
2005-01-13 14:59:49 51°36.208 3°24.776 6.958216 3.356673 32.985555 1.275024
2005-01-13 15:00:50 51°36.192 3°24.701 6.965427 3.356041 32.979478 1.275024
2005-01-13 15:01:49 51°36.177 3°24.628 6.951216 3.356989 32.984932 1.207606
2005-01-13 15:02:49 51°36.175 3°24.536 6.95408 3.362782 33.047279 1.275024
2005-01-13 15:03:50 51°36.183 3°24.445 6.951959 3.363414 33.050095 1.207606
2005-01-13 15:04:50 51°36.197 3°24.36 6.96092 3.364467 33.053429 1.241315
2005-01-13 15:05:49 51°36.193 3°24.328 6.978786 3.364151 33.054058 1.207606
2005-01-13 15:06:49 51°36.189 3°24.337 6.964897 3.364151 33.055688 1.207606
2005-01-13 15:07:50 51°36.192 3°24.37 6.948989 3.364046 33.05291 1.072768
2005-01-13 15:08:49 51°36.195 3°24.41 6.971683 3.36373 33.052725 1.106477
2005-01-13 15:09:49 51°36.202 3°24.455 6.973856 3.363835 33.054688 1.072768
2005-01-13 15:10:50 51°36.213 3°24.502 6.962034 3.36373 33.05517 1.106477
2005-01-13 15:11:49 51°36.22 3°24.547 6.95514 3.363835 33.053058 1.106477
2005-01-13 15:12:49 51°36.228 3°24.593 6.949254 3.364257 33.051132 1.106477
2005-01-13 15:13:49 51°36.235 3°24.636 6.944428 3.364257 33.057652 1.072768
2005-01-13 15:14:50 51°36.201 3°24.588 6.954451 3.364678 33.05817 1.140187
2005-01-13 15:15:49 51°36.156 3°24.348 6.97375 3.365836 33.06102 1.140187
2005-01-13 15:16:49 51°36.093 3°24.059 6.982444 3.368469 33.075864 1.241315
2005-01-13 15:17:49 51°36.034 3°23.769 6.984458 3.369312 33.077712 1.308734
2005-01-13 15:18:50 51°35.972 3°23.472 6.969032 3.367522 33.069609 1.409862
2005-01-13 15:19:50 51°35.915 3°23.177 7.002742 3.366363 33.062686 1.443571
2005-01-13 15:20:49 51°35.857 3°22.884 6.987479 3.366995 33.069574 1.477281
2005-01-13 15:21:49 51°35.811 3°22.579 7.021656 3.370049 33.079227 1.612118
2005-01-13 15:22:50 51°35.781 3°22.266 7.04549 3.375526 33.11443 1.814375
2005-01-13 15:23:50 51°35.753 3°21.96 7.074237 3.380687 33.145345 1.780665
2005-01-13 15:24:50 51°35.725 3°21.663 7.085775 3.3849 33.162659 1.848084
2005-01-13 15:25:49 51°35.701 3°21.365 7.084135 3.386691 33.168282 1.578409
2005-01-13 15:26:50 51°35.616 3°21.104 7.089956 3.38311 33.142375 1.376153
2005-01-13 15:27:49 51°35.508 3°20.865 7.072014 3.37837 33.101416 1.173896
2005-01-13 15:28:49 51°35.412 3°20.605 7.082335 3.374367 33.061959 1.207606
2005-01-13 15:29:50 51°35.314 3°20.34 7.084029 3.377 33.085714 1.409862
2005-01-13 15:30:50 51°35.221 3°20.076 7.103555 3.380266 33.108204 0.870512
2005-01-13 15:31:49 51°35.127 3°19.818 7.059044 3.376263 33.079323 0.735674
2005-01-13 15:32:50 51°35.028 3°19.55 7.034739 3.368153 33.014681 0.432289
2005-01-13 15:33:49 51°34.934 3°19.293 7.037811 3.36552 33.000648 0.39858
2005-01-13 15:34:49 51°34.839 3°19.03 7.072173 3.370365 33.037115 0.465999
2005-01-13 15:35:49 51°34.743 3°18.767 7.03887 3.370786 33.04251 0.465999
2005-01-13 15:36:50 51°34.644 3°18.502 7.03262 3.36573 32.990766 0.39858
2005-01-13 15:37:49 51°34.551 3°18.24 6.999456 3.357726 32.934494 0.432289
2005-01-13 15:38:50 51°34.455 3°17.968 6.976825 3.350458 32.880508 0.499708
2005-01-13 15:39:49 51°34.361 3°17.706 6.990394 3.348984 32.853125 0.432289
2005-01-13 15:40:49 51°34.262 3°17.448 6.985836 3.344981 32.818462 0.465999
2005-01-13 15:41:50 51°34.165 3°17.185 6.987373 3.342559 32.792098 0.432289
2005-01-13 15:42:49 51°34.069 3°16.925 6.97868 3.339715 32.7773 0.432289
2005-01-13 15:43:50 51°33.969 3°16.652 6.964738 3.335607 32.737428 0.432289
2005-01-13 15:44:50 51°33.872 3°16.385 6.971789 3.33329 32.711399 0.465999
2005-01-13 15:45:49 51°33.777 3°16.121 6.976454 3.327813 32.659038 0.465999
2005-01-13 15:46:50 51°33.681 3°15.845 6.990394 3.328024 32.651672 0.499708
2005-01-13 15:47:49 51°33.586 3°15.576 7.058886 3.335607 32.703574 0.499708
2005-01-13 15:48:49 51°33.489 3°15.309 7.056609 3.346455 32.779611 0.432289
2005-01-13 15:49:50 51°33.391 3°15.035 7.247991 3.377421 33.027821 0.499708
2005-01-13 15:50:49 51°33.298 3°14.765 7.562401 3.441042 33.49999 0.364871
2005-01-13 15:51:50 51°33.205 3°14.487 7.759706 3.521735 34.062295 0.465999
2005-01-13 15:52:50 51°33.111 3°14.214 7.788719 3.537538 34.160614 0.567127
2005-01-13 15:53:50 51°33.017 3°13.936 7.781022 3.54112 34.183453 0.668255
2005-01-13 15:54:50 51°32.924 3°13.663 7.774999 3.541436 34.18438 0.735674
2005-01-13 15:55:50 51°32.831 3°13.384 7.768977 3.538907 34.17121 0.769383
2005-01-13 15:56:49 51°32.74 3°13.11 7.738121 3.536484 34.158343 0.836802
2005-01-13 15:57:50 51°32.647 3°12.836 7.687169 3.526898 34.096432 0.668255
2005-01-13 15:58:49 51°32.558 3°12.57 7.650188 3.516889 34.036456 0.600836
2005-01-13 15:59:50 51°32.458 3°12.297 7.636072 3.509304 33.975364 0.769383
2005-01-13 16:00:50 51°32.341 3°12.053 7.613239 3.506354 33.951001 0.870512
2005-01-13 16:01:50 51°32.227 3°11.808 7.569073 3.497189 33.886759 0.836802
2005-01-13 16:02:50 51°32.112 3°11.56 7.500165 3.484232 33.801205 0.803093
2005-01-13 16:03:50 51°31.998 3°11.308 7.476128 3.475067 33.745749 0.93793
2005-01-13 16:04:49 51°31.888 3°11.056 7.459607 3.470327 33.718325 1.072768
2005-01-13 16:05:49 51°31.773 3°10.804 7.453713 3.467482 33.697438 1.207606
2005-01-13 16:06:49 51°31.661 3°10.553 7.425078 3.46053 33.652619 1.072768
2005-01-13 16:07:49 51°31.548 3°10.302 7.426499 3.45758 33.633018 1.005349
2005-01-13 16:08:49 51°31.434 3°10.052 7.422919 3.458844 33.633594 1.072768
2005-01-13 16:09:50 51°31.322 3°9.793 7.443081 3.460319 33.648707 1.005349
2005-01-13 16:10:49 51°31.211 3°9.547 7.439607 3.462005 33.657917 0.904221
2005-01-13 16:11:49 51°31.1 3°9.293 7.434185 3.459687 33.63534 1.039059
2005-01-13 16:12:49 51°30.987 3°9.04 7.441397 3.458423 33.62414 1.072768
2005-01-13 16:13:50 51°30.873 3°8.782 7.440292 3.458002 33.617955 1.005349
2005-01-13 16:14:49 51°30.763 3°8.536 7.45345 3.459055 33.61463 1.005349
2005-01-13 16:15:49 51°30.653 3°8.283 7.460396 3.459792 33.621774 0.93793
2005-01-13 16:16:50 51°30.538 3°8.022 7.473918 3.460319 33.624194 0.904221
2005-01-13 16:17:50 51°30.427 3°7.763 7.48891 3.464216 33.639315 1.072768
2005-01-13 16:18:50 51°30.314 3°7.51 7.510261 3.467271 33.661656 1.005349
2005-01-13 16:19:50 51°30.202 3°7.255 7.550526 3.4698 33.679124 1.072768
2005-01-13 16:20:50 51°30.091 3°7.006 7.550421 3.476225 33.705119 0.97164
2005-01-13 16:21:50 51°29.979 3°6.751 7.59397 3.48086 33.73219 0.93793
2005-01-13 16:22:49 51°29.869 3°6.5 7.62925 3.487497 33.775879 0.803093
2005-01-13 16:23:50 51°29.756 3°6.242 7.614237 3.488445 33.765678 0.701965
2005-01-13 16:24:50 51°29.645 3°5.991 7.615759 3.488339 33.762913 0.701965
2005-01-13 16:25:49 51°29.537 3°5.742 7.595125 3.484863 33.746722 0.668255
2005-01-13 16:26:49 51°29.426 3°5.484 7.604367 3.482546 33.732385 0.701965
2005-01-13 16:27:50 51°29.314 3°5.226 7.599746 3.482862 33.729262 0.836802
2005-01-13 16:28:49 51°29.202 3°4.967 7.619434 3.482335 33.719518 0.870512
2005-01-13 16:29:49 51°29.091 3°4.707 7.637017 3.487391 33.742121 0.870512
2005-01-13 16:30:49 51°28.98 3°4.451 7.661311 3.489919 33.753004 0.904221
2005-01-13 16:31:50 51°28.868 3°4.188 7.685438 3.492764 33.758319 0.904221
2005-01-13 16:32:49 51°28.756 3°3.933 7.704209 3.49329 33.759906 0.97164
2005-01-13 16:33:49 51°28.646 3°3.675 7.722399 3.497715 33.789505 1.039059
2005-01-13 16:34:49 51°28.534 3°3.415 7.74708 3.503719 33.816496 1.207606
2005-01-13 16:35:49 51°28.422 3°3.159 7.786677 3.51004 33.858231 1.207606
2005-01-13 16:36:50 51°28.306 3°2.896 7.805891 3.516256 33.892278 1.308734
2005-01-13 16:37:49 51°28.197 3°2.641 7.848172 3.524473 33.955047 1.241315
2005-01-13 16:38:49 51°28.085 3°2.382 7.880702 3.531742 33.997005 1.173896
2005-01-13 16:39:50 51°27.972 3°2.121 7.905377 3.538695 34.051835 1.106477
2005-01-13 16:40:50 51°27.863 3°1.865 7.916404 3.543858 34.081755 1.005349
2005-01-13 16:41:50 51°27.754 3°1.611 7.922988 3.546807 34.101871 1.005349
2005-01-13 16:42:49 51°27.647 3°1.359 7.936938 3.549336 34.11584 0.97164
2005-01-13 16:43:49 51°27.539 3°1.103 7.953183 3.551654 34.134898 0.97164
2005-01-13 16:44:49 51°27.43 3°0.845 7.956213 3.554077 34.145278 0.870512
2005-01-13 16:45:50 51°27.32 3°0.58 7.971879 3.555762 34.154306 0.836802
2005-01-13 16:46:49 51°27.211 3°0.326 7.977883 3.557027 34.163728 0.803093
2005-01-13 16:47:49 51°27.091 3°0.079 7.979397 3.558186 34.163859 0.769383
2005-01-13 16:48:49 51°26.947 2°59.866 7.98373 3.559239 34.165315 0.836802
2005-01-13 16:49:49 51°26.804 2°59.648 8.039044 3.559555 34.162161 0.769383
2005-01-13 16:50:49 51°26.656 2°59.435 8.013428 3.560503 34.166571 0.836802
2005-01-13 16:51:49 51°26.511 2°59.22 8.016507 3.560714 34.166373 0.803093
2005-01-13 16:52:49 51°26.366 2°58.999 8.025689 3.561767 34.164567 0.769383
2005-01-13 16:53:50 51°26.217 2°58.782 8.022037 3.562189 34.168247 0.701965
2005-01-13 16:54:50 51°26.071 2°58.564 8.042226 3.563137 34.161245 0.701965
2005-01-13 16:55:50 51°25.924 2°58.342 8.03701 3.562505 34.169989 0.701965
2005-01-13 16:56:50 51°25.773 2°58.127 8.03002 3.563348 34.164307 0.735674
2005-01-13 16:57:50 51°25.623 2°57.909 8.038627 3.563664 34.166047 0.701965
2005-01-13 16:58:49 51°25.476 2°57.692 8.032993 3.562505 34.166728 0.634546
2005-01-13 16:59:49 51°25.313 2°57.497 8.043634 3.563453 34.166245 0.668255
2005-01-13 17:00:49 51°25.11 2°57.432 8.032158 3.563137 34.16206 0.668255
2005-01-13 17:01:49 51°24.898 2°57.408 8.036645 3.562715 34.158381 0.701965
2005-01-13 17:02:49 51°24.687 2°57.38 8.041183 3.561662 34.155293 0.735674
2005-01-13 17:03:50 51°24.471 2°57.358 8.024281 3.558817 34.127399 0.769383
2005-01-13 17:04:49 51°24.268 2°57.312 8.031011 3.555551 34.092571 0.836802
2005-01-13 17:05:49 51°24.069 2°57.209 8.02882 3.552285 34.067501 0.904221
2005-01-13 17:06:49 51°23.874 2°57.091 8.020472 3.54944 34.032294 0.93793
2005-01-13 17:07:49 51°23.68 2°56.965 8.045668 3.547228 34.007896 1.005349
2005-01-13 17:08:49 51°23.499 2°56.795 8.010401 3.545437 33.991237 0.97164
2005-01-13 17:09:49 51°23.318 2°56.62 8.010923 3.543224 33.974138 1.005349
2005-01-13 17:10:49 51°23.138 2°56.447 8.02089 3.542697 33.967712 1.106477
2005-01-13 17:11:50 51°22.947 2°56.286 8.017759 3.542592 33.960915 1.005349
2005-01-13 17:12:49 51°22.762 2°56.128 8.031585 3.541328 33.953111 1.005349
2005-01-13 17:13:49 51°22.574 2°55.969 8.029028 3.541328 33.952301 0.97164
2005-01-13 17:14:49 51°22.386 2°55.814 8.020003 3.540274 33.941881 0.93793
2005-01-13 17:15:49 51°22.196 2°55.659 8.046607 3.538483 33.912269 1.005349
2005-01-13 17:16:50 51°22.006 2°55.499 8.031219 3.538167 33.900814 0.93793
2005-01-13 17:17:49 51°21.822 2°55.345 8.029028 3.539326 33.914777 0.836802
2005-01-13 17:18:49 51°21.64 2°55.182 8.034297 3.541644 33.938662 0.836802
2005-01-13 17:19:49 51°21.457 2°55.017 8.030385 3.542697 33.945029 0.93793
2005-01-13 17:20:50 51°21.272 2°54.849 8.026368 3.542592 33.957674 0.870512
2005-01-13 17:21:49 51°21.093 2°54.682 8.010767 3.542592 33.958484 0.904221
2005-01-13 17:22:49 51°20.906 2°54.519 8.008836 3.539642 33.951348 0.870512
2005-01-13 17:23:49 51°20.72 2°54.352 7.988376 3.537641 33.931623 1.039059
2005-01-13 17:24:49 51°20.532 2°54.182 7.974646 3.536587 33.930111 0.97164
2005-01-13 17:25:49 51°20.346 2°54.013 7.973967 3.536482 33.924935 1.005349
2005-01-13 17:26:49 51°20.157 2°53.844 7.975377 3.535007 33.926221 0.93793
2005-01-13 17:27:49 51°19.973 2°53.672 7.985505 3.535428 33.925043 1.005349
2005-01-13 17:28:49 51°19.786 2°53.501 8.022977 3.539642 33.944054 1.039059
2005-01-13 17:29:49 51°19.602 2°53.324 8.045147 3.543751 33.969215 1.241315
2005-01-13 17:30:49 51°19.414 2°53.153 8.040557 3.54786 33.996789 1.241315
2005-01-13 17:31:49 51°19.227 2°52.982 8.048015 3.548703 34.006581 1.308734
2005-01-13 17:32:49 51°19.034 2°52.824 8.050936 3.549019 34.009138 1.173896
2005-01-13 17:33:49 51°18.835 2°52.683 8.041913 3.548913 34.00315 1.173896
2005-01-13 17:34:49 51°18.634 2°52.557 8.04499 3.549335 34.011695 1.207606
2005-01-13 17:35:49 51°18.428 2°52.445 8.041913 3.549335 34.013317 1.207606
2005-01-13 17:36:49 51°18.219 2°52.34 8.051718 3.549651 34.017496 1.173896
2005-01-13 17:37:49 51°18.006 2°52.256 8.065067 3.549651 34.006143 1.173896
2005-01-13 17:38:49 51°17.79 2°52.207 8.058184 3.548913 33.995045 1.308734
2005-01-13 17:39:49 51°17.569 2°52.172 8.042487 3.547649 33.98401 1.308734
2005-01-13 17:40:49 51°17.353 2°52.171 8.043373 3.544804 33.965048 1.308734
2005-01-13 17:41:49 51°17.136 2°52.238 8.042121 3.544594 33.969283 1.275024
2005-01-13 17:42:49 51°16.924 2°52.343 8.049997 3.544383 33.963798 1.241315
2005-01-13 17:43:49 51°16.719 2°52.478 8.107392 3.548913 33.972373 1.241315
2005-01-13 17:44:50 51°16.51 2°52.624 8.117604 3.551862 33.969794 1.409862
2005-01-13 17:45:49 51°16.313 2°52.774 8.057663 3.546806 33.949137 1.342443
2005-01-13 17:46:49 51°16.109 2°52.92 8.017759 3.538588 33.906112 1.072768
2005-01-13 17:47:49 51°15.903 2°53.071 8.033984 3.533531 33.873252 1.005349
2005-01-13 17:48:49 51°15.699 2°53.223 8.0056 3.530792 33.859417 0.93793
2005-01-13 17:49:49 51°15.495 2°53.38 8.03075 3.53174 33.850935 1.039059
2005-01-13 17:50:49 51°15.3 2°53.566 8.057611 3.533531 33.847403 1.207606
2005-01-13 17:51:49 51°15.122 2°53.771 8.066371 3.53764 33.87985 1.173896
2005-01-13 17:52:49 51°14.948 2°54.014 8.060687 3.537218 33.876171 1.106477
2005-01-13 17:53:49 51°14.786 2°54.273 8.050571 3.534901 33.849073 1.106477
2005-01-13 17:54:49 51°14.625 2°54.525 8.085295 3.514251 33.618139 0.803093
2005-01-13 17:55:49 51°14.475 2°54.787 7.956526 3.481908 33.294363 0.97164
2005-01-13 17:56:49 51°14.356 2°55.054 7.912903 3.39395 32.477197 1.039059
2005-01-13 17:57:50 51°14.242 2°55.293 7.915359 3.292521 31.404927 1.207606
2005-01-13 17:58:49 51°14.109 2°55.417 7.932393 3.168259 30.097385 1.140187
2005-01-13 17:59:49 51°13.976 2°55.518 7.955481 3.067183 29.026446 1.140187
2005-01-13 18:00:49 51°13.856 2°55.611 8.041652 2.920445 27.48682 1.241315
2005-01-13 18:01:49 51°13.758 2°55.714 8.138336 2.963703 27.856555 -0.814958
2005-01-13 18:02:50 51°13.686 2°55.857 8.39331 2.964335 27.86178 -0.848668
2005-01-13 18:03:49 51°13.633 2°55.982 8.432055 2.965177 27.867861 -0.882377
2005-01-13 18:04:53 51°13.6 2°56.081 8.563733 2.965914 27.875503 -0.882377
2005-01-13 18:05:54 51°13.592 2°56.106 8.718696 2.96644 27.880962 -0.882377